createdAt,value
2019-05-15T00:01:19.229Z,23.10
2019-05-15T00:04:09.296Z,23.10
2019-05-15T00:06:58.368Z,23.10
2019-05-15T00:09:58.723Z,23.10
2019-05-15T00:12:48.701Z,23.10
2019-05-15T00:15:37.038Z,23.10
2019-05-15T00:18:28.002Z,23.10
2019-05-15T00:21:17.850Z,23.10
2019-05-15T00:24:06.100Z,23.00
2019-05-15T00:26:54.105Z,23.00
2019-05-15T00:29:42.307Z,23.00
2019-05-15T00:32:30.707Z,23.00
2019-05-15T00:35:19.339Z,23.00
2019-05-15T00:38:09.329Z,23.00
2019-05-15T00:40:59.139Z,23.00
2019-05-15T00:43:49.407Z,23.00
2019-05-15T00:46:38.764Z,23.00
2019-05-15T00:49:28.857Z,23.00
2019-05-15T00:52:18.021Z,23.00
2019-05-15T00:55:08.592Z,23.00
2019-05-15T00:57:58.969Z,23.00
2019-05-15T01:00:48.656Z,23.00
2019-05-15T01:03:38.796Z,22.90
2019-05-15T01:06:28.419Z,22.90
2019-05-15T01:09:18.681Z,22.90
2019-05-15T01:12:09.060Z,22.90
2019-05-15T01:14:58.321Z,22.90
2019-05-15T01:17:49.065Z,22.90
2019-05-15T01:20:39.178Z,22.90
2019-05-15T01:23:28.247Z,22.90
2019-05-15T01:26:18.820Z,22.90
2019-05-15T01:29:09.099Z,22.90
2019-05-15T01:31:59.246Z,22.90
2019-05-15T01:34:49.027Z,22.90
2019-05-15T01:37:39.035Z,22.90
2019-05-15T01:40:28.939Z,22.90
2019-05-15T01:43:18.719Z,22.90
2019-05-15T01:46:08.992Z,22.90
2019-05-15T01:48:58.840Z,22.90
2019-05-15T01:51:47.952Z,22.90
2019-05-15T01:54:38.308Z,22.90
2019-05-15T01:57:28.611Z,22.90
2019-05-15T02:00:18.847Z,22.80
2019-05-15T02:03:09.415Z,22.80
2019-05-15T02:05:58.654Z,22.80
2019-05-15T02:08:49.423Z,22.80
2019-05-15T02:11:38.281Z,22.80
2019-05-15T02:14:28.544Z,22.80
2019-05-15T02:17:18.799Z,22.80
2019-05-15T02:20:08.316Z,22.80
2019-05-15T02:22:59.074Z,22.80
2019-05-15T02:25:48.238Z,22.80
2019-05-15T02:28:38.468Z,22.80
2019-05-15T02:31:30.193Z,22.80
2019-05-15T02:34:19.488Z,22.80
2019-05-15T02:37:09.009Z,22.80
2019-05-15T02:39:58.957Z,22.80
2019-05-15T02:42:49.022Z,22.80
2019-05-15T02:45:40.759Z,22.80
2019-05-15T02:48:29.012Z,22.80
2019-05-15T02:51:19.118Z,22.80
2019-05-15T02:54:09.929Z,22.70
2019-05-15T02:56:59.059Z,22.80
2019-05-15T02:59:49.514Z,22.70
2019-05-15T03:02:36.033Z,22.70
2019-05-15T03:05:24.281Z,22.70
2019-05-15T03:08:12.445Z,22.70
2019-05-15T03:11:00.770Z,22.70
2019-05-15T03:13:50.445Z,22.70
2019-05-15T03:16:39.617Z,22.70
2019-05-15T03:19:29.841Z,22.70
2019-05-15T03:22:19.518Z,22.70
2019-05-15T03:25:10.524Z,22.70
2019-05-15T03:27:59.548Z,22.70
2019-05-15T03:31:15.305Z,22.70
2019-05-15T03:33:44.802Z,22.70
2019-05-15T03:36:31.677Z,22.70
2019-05-15T03:39:19.022Z,22.70
2019-05-15T03:42:09.577Z,22.70
2019-05-15T03:44:59.645Z,22.60
2019-05-15T03:47:49.131Z,22.60
2019-05-15T03:50:40.221Z,22.60
2019-05-15T03:53:29.792Z,22.60
2019-05-15T03:56:19.084Z,22.60
2019-05-15T03:59:09.355Z,22.60
2019-05-15T04:01:59.968Z,22.60
2019-05-15T04:04:50.088Z,22.60
2019-05-15T04:07:39.791Z,22.60
2019-05-15T04:10:28.789Z,22.60
2019-05-15T04:13:19.654Z,22.60
2019-05-15T04:16:09.999Z,22.60
2019-05-15T04:18:59.318Z,22.60
2019-05-15T04:21:49.177Z,22.60
2019-05-15T04:24:39.326Z,22.60
2019-05-15T04:27:28.954Z,22.60
2019-05-15T04:30:19.064Z,22.60
2019-05-15T04:33:09.446Z,22.60
2019-05-15T04:36:09.769Z,22.60
2019-05-15T04:38:58.777Z,22.60
2019-05-15T04:41:49.777Z,22.60
2019-05-15T04:44:39.485Z,22.60
2019-05-15T04:47:29.970Z,22.60
2019-05-15T04:50:19.193Z,22.60
2019-05-15T04:53:10.023Z,22.60
2019-05-15T04:55:59.442Z,22.60
2019-05-15T04:58:46.221Z,22.60
2019-05-15T05:01:34.696Z,22.60
2019-05-15T05:04:22.953Z,22.60
2019-05-15T05:07:11.581Z,22.60
2019-05-15T05:10:00.260Z,22.60
2019-05-15T05:12:50.888Z,22.60
2019-05-15T05:15:38.907Z,22.60
2019-05-15T05:18:29.831Z,22.60
2019-05-15T05:21:18.441Z,22.60
2019-05-15T05:24:08.003Z,22.60
2019-05-15T05:26:58.106Z,22.60
2019-05-15T05:29:48.017Z,22.60
2019-05-15T05:32:39.130Z,22.60
2019-05-15T05:35:27.899Z,22.60
2019-05-15T05:38:18.716Z,22.60
2019-05-15T05:41:08.183Z,22.60
2019-05-15T05:43:55.997Z,22.60
2019-05-15T05:46:44.597Z,22.60
2019-05-15T05:49:32.952Z,22.60
2019-05-15T05:52:21.254Z,22.50
2019-05-15T05:55:09.532Z,22.60
2019-05-15T05:57:58.410Z,22.60
2019-05-15T06:00:48.994Z,22.60
2019-05-15T06:03:38.570Z,22.60
2019-05-15T06:06:29.272Z,22.60
2019-05-15T06:09:18.231Z,22.60
2019-05-15T06:12:07.839Z,22.60
2019-05-15T06:14:58.042Z,22.60
2019-05-15T06:17:48.117Z,22.50
2019-05-15T06:20:36.357Z,22.60
2019-05-15T06:23:26.202Z,22.50
2019-05-15T06:26:16.129Z,22.50
2019-05-15T06:29:04.405Z,22.50
2019-05-15T06:31:52.996Z,22.50
2019-05-15T06:34:42.647Z,22.50
2019-05-15T06:37:31.270Z,22.50
2019-05-15T06:40:19.671Z,22.50
2019-05-15T06:43:08.761Z,22.50
2019-05-15T06:45:58.470Z,22.50
2019-05-15T06:48:48.625Z,22.50
2019-05-15T06:51:38.456Z,22.50
2019-05-15T06:54:28.417Z,22.50
2019-05-15T06:57:18.386Z,22.50
2019-05-15T07:00:08.448Z,22.50
2019-05-15T07:02:58.319Z,22.50
2019-05-15T07:05:59.989Z,22.50
2019-05-15T07:08:49.618Z,22.50
2019-05-15T07:11:38.902Z,22.50
2019-05-15T07:14:28.796Z,22.50
2019-05-15T07:17:17.727Z,22.50
2019-05-15T07:20:09.577Z,22.50
2019-05-15T07:22:58.778Z,22.50
2019-05-15T07:25:49.965Z,22.50
2019-05-15T07:28:39.212Z,22.50
2019-05-15T07:31:28.944Z,22.50
2019-05-15T07:34:18.765Z,22.50
2019-05-15T07:37:09.640Z,22.50
2019-05-15T07:39:59.088Z,22.50
2019-05-15T07:42:49.018Z,22.50
2019-05-15T07:45:43.363Z,22.50
2019-05-15T07:48:29.093Z,22.50
2019-05-15T07:51:18.094Z,22.50
2019-05-15T07:54:09.245Z,22.50
2019-05-15T07:56:58.400Z,22.40
2019-05-15T07:59:48.054Z,22.40
2019-05-15T08:02:37.956Z,22.50
2019-05-15T08:05:28.562Z,22.50
2019-05-15T08:08:18.490Z,22.50
2019-05-15T08:11:17.699Z,22.50
2019-05-15T08:13:58.217Z,22.50
2019-05-15T08:16:48.559Z,22.50
2019-05-15T08:19:38.395Z,22.50
2019-05-15T08:22:28.501Z,22.50
2019-05-15T08:25:30.543Z,22.50
2019-05-15T08:28:08.826Z,22.50
2019-05-15T08:30:58.286Z,22.50
2019-05-15T08:33:48.202Z,22.50
2019-05-15T08:36:38.548Z,22.50
2019-05-15T08:39:28.443Z,22.50
2019-05-15T08:42:18.856Z,22.50
2019-05-15T08:45:09.190Z,22.50
2019-05-15T08:47:58.578Z,22.50
2019-05-15T08:50:48.753Z,22.40
2019-05-15T08:53:38.013Z,22.50
2019-05-15T08:56:28.869Z,22.40
2019-05-15T08:59:18.740Z,22.40
2019-05-15T09:02:07.895Z,22.40
2019-05-15T09:04:58.051Z,22.40
2019-05-15T09:07:48.607Z,22.40
2019-05-15T09:10:38.479Z,22.40
2019-05-15T09:13:29.160Z,22.40
2019-05-15T09:16:18.523Z,22.40
2019-05-15T09:19:08.319Z,22.40
2019-05-15T09:21:58.543Z,22.40
2019-05-15T09:24:48.875Z,22.40
2019-05-15T09:27:38.264Z,22.40
2019-05-15T09:30:28.631Z,22.40
2019-05-15T09:33:19.585Z,22.40
2019-05-15T09:36:08.805Z,22.40
2019-05-15T09:38:58.510Z,22.40
2019-05-15T09:41:48.574Z,22.40
2019-05-15T09:44:36.497Z,22.40
2019-05-15T09:47:24.981Z,22.40
2019-05-15T09:50:13.216Z,22.40
2019-05-15T09:53:01.862Z,22.40
2019-05-15T09:55:50.074Z,22.40
2019-05-15T09:58:38.563Z,22.40
2019-05-15T10:01:48.250Z,22.40
2019-05-15T10:04:39.089Z,22.40
2019-05-15T10:07:28.630Z,22.30
2019-05-15T10:10:19.266Z,22.30
2019-05-15T10:13:09.105Z,22.30
2019-05-15T10:15:58.704Z,22.30
2019-05-15T10:18:50.954Z,22.30
2019-05-15T10:21:39.918Z,22.30
2019-05-15T10:24:29.009Z,22.30
2019-05-15T10:27:23.921Z,22.30
2019-05-15T10:30:13.954Z,22.30
2019-05-15T10:33:02.812Z,22.30
2019-05-15T10:35:51.747Z,22.30
2019-05-15T10:38:40.027Z,22.30
2019-05-15T10:41:28.458Z,22.30
2019-05-15T10:44:18.160Z,22.30
2019-05-15T10:47:09.423Z,22.30
2019-05-15T10:50:08.060Z,22.30
2019-05-15T10:52:57.591Z,22.30
2019-05-15T10:55:45.943Z,22.30
2019-05-15T10:58:34.239Z,22.30
2019-05-15T11:01:23.139Z,22.30
2019-05-15T11:04:11.411Z,22.30
2019-05-15T11:06:59.955Z,22.30
2019-05-15T11:09:49.050Z,22.30
2019-05-15T11:12:38.411Z,22.30
2019-05-15T11:15:28.934Z,22.30
2019-05-15T11:18:16.579Z,22.30
2019-05-15T11:21:04.910Z,22.30
2019-05-15T11:23:53.371Z,22.30
2019-05-15T11:26:41.909Z,22.30
2019-05-15T11:29:30.187Z,22.30
2019-05-15T11:32:18.455Z,22.30
2019-05-15T11:35:07.196Z,22.30
2019-05-15T11:37:57.160Z,22.30
2019-05-15T11:40:46.988Z,22.30
2019-05-15T11:43:38.267Z,22.30
2019-05-15T11:46:28.434Z,22.30
2019-05-15T11:49:15.234Z,22.30
2019-05-15T11:52:03.681Z,22.30
2019-05-15T11:54:51.867Z,22.30
2019-05-15T11:57:46.719Z,22.30
2019-05-15T12:00:30.422Z,22.30
2019-05-15T12:03:19.293Z,22.30
2019-05-15T12:06:18.432Z,22.20
2019-05-15T12:08:59.199Z,22.30
2019-05-15T12:11:47.683Z,22.20
2019-05-15T12:14:38.856Z,22.20
2019-05-15T12:17:28.513Z,22.20
2019-05-15T12:20:19.414Z,22.20
2019-05-15T12:23:09.111Z,22.20
2019-05-15T12:25:59.715Z,22.20
2019-05-15T12:28:48.910Z,22.20
2019-05-15T12:31:38.809Z,22.20
2019-05-15T12:34:28.926Z,22.30
2019-05-15T12:37:19.765Z,22.30
2019-05-15T12:59:58.462Z,22.30
2019-05-15T13:02:49.047Z,22.20
2019-05-15T13:05:38.937Z,22.30
2019-05-15T13:08:29.128Z,22.30
2019-05-15T13:11:18.007Z,22.20
2019-05-15T13:14:08.135Z,22.30
2019-05-15T13:16:58.855Z,22.20
2019-05-15T13:19:48.268Z,22.20
2019-05-15T13:22:39.250Z,22.20
2019-05-15T13:25:27.994Z,22.20
2019-05-15T13:28:18.370Z,22.20
2019-05-15T13:31:08.994Z,22.20
2019-05-15T13:33:58.566Z,22.20
2019-05-15T13:36:48.613Z,22.20
2019-05-15T13:39:39.102Z,22.20
2019-05-15T13:42:28.074Z,22.20
2019-05-15T13:45:18.272Z,22.20
2019-05-15T13:48:08.277Z,22.20
2019-05-15T13:50:58.754Z,22.20
2019-05-15T13:53:46.315Z,22.20
2019-05-15T13:56:34.463Z,22.20
2019-05-15T13:59:23.158Z,22.20
2019-05-15T14:02:12.110Z,22.20
2019-05-15T14:05:01.096Z,22.20
2019-05-15T14:07:53.507Z,22.30
2019-05-15T14:10:41.600Z,22.20
2019-05-15T14:13:30.797Z,22.20
2019-05-15T14:16:20.735Z,22.20
2019-05-15T14:19:11.150Z,22.30
2019-05-15T14:22:12.902Z,22.30
2019-05-15T14:25:03.351Z,22.20
2019-05-15T14:27:52.976Z,22.30
2019-05-15T14:30:42.472Z,22.30
2019-05-15T14:33:34.151Z,22.30
2019-05-15T14:36:28.693Z,22.20
2019-05-15T14:39:20.845Z,22.00
2019-05-15T14:42:09.136Z,21.70
2019-05-15T14:44:59.397Z,21.60
2019-05-15T14:47:49.907Z,21.50
2019-05-15T14:50:40.923Z,21.40
2019-05-15T14:53:38.367Z,21.30
2019-05-15T14:56:29.235Z,21.20
2019-05-15T14:59:19.659Z,21.20
2019-05-15T15:02:10.397Z,21.30
2019-05-15T15:05:01.025Z,21.30
2019-05-15T15:07:50.854Z,21.30
2019-05-15T15:10:41.863Z,21.20
2019-05-15T15:13:31.096Z,21.20
2019-05-15T15:16:20.921Z,21.20
2019-05-15T15:19:22.159Z,21.20
2019-05-15T15:22:10.435Z,21.20
2019-05-15T15:25:02.436Z,21.10
2019-05-15T15:27:51.655Z,21.20
2019-05-15T15:30:43.201Z,21.20
2019-05-15T15:33:33.626Z,21.10
2019-05-15T15:36:23.280Z,21.10
2019-05-15T15:39:14.215Z,21.10
2019-05-15T15:42:04.221Z,21.10
2019-05-15T15:44:54.693Z,21.00
2019-05-15T15:47:44.910Z,21.00
2019-05-15T15:50:38.119Z,21.00
2019-05-15T15:53:28.649Z,21.00
2019-05-15T15:56:18.424Z,21.00
2019-05-15T15:59:08.811Z,21.00
2019-05-15T16:01:59.696Z,20.90
2019-05-15T16:04:48.363Z,20.90
2019-05-15T16:07:37.969Z,20.90
2019-05-15T16:10:28.248Z,20.80
2019-05-15T16:13:18.486Z,20.90
2019-05-15T16:16:08.573Z,20.90
2019-05-15T16:18:56.837Z,20.80
2019-05-15T16:21:48.667Z,20.80
2019-05-15T16:24:40.651Z,20.80
2019-05-15T16:27:29.932Z,20.80
2019-05-15T16:30:19.763Z,20.80
2019-05-15T16:33:10.451Z,20.70
2019-05-15T16:36:13.163Z,20.70
2019-05-15T16:39:07.610Z,20.70
2019-05-15T16:41:54.536Z,20.70
2019-05-15T16:44:43.839Z,20.60
2019-05-15T16:47:32.387Z,20.60
2019-05-15T16:50:20.919Z,20.50
2019-05-15T16:53:09.373Z,20.50
2019-05-15T16:55:59.934Z,20.50
2019-05-15T16:58:49.141Z,20.50
2019-05-15T17:01:39.393Z,20.70
2019-05-15T17:04:29.013Z,20.90
2019-05-15T17:07:18.232Z,21.10
2019-05-15T17:10:08.391Z,21.20
2019-05-15T17:12:58.298Z,21.30
2019-05-15T17:15:47.866Z,21.30
2019-05-15T17:18:38.124Z,21.30
2019-05-15T17:21:28.497Z,21.40
2019-05-15T17:24:17.359Z,21.50
2019-05-15T17:27:08.270Z,21.70
2019-05-15T17:29:58.285Z,21.80
2019-05-15T17:32:45.908Z,21.90
2019-05-15T17:35:34.140Z,22.00
2019-05-15T17:38:22.784Z,22.00
2019-05-15T17:41:11.191Z,22.00
2019-05-15T17:43:59.531Z,21.90
2019-05-15T17:46:48.966Z,21.90
2019-05-15T17:49:49.247Z,21.80
2019-05-15T17:52:38.859Z,21.70
2019-05-15T17:55:27.939Z,21.70
2019-05-15T17:58:18.121Z,21.70
2019-05-15T18:01:08.829Z,21.70
2019-05-15T18:03:59.169Z,21.60
2019-05-15T18:06:48.432Z,21.60
2019-05-15T18:09:50.351Z,21.60
2019-05-15T18:12:29.260Z,21.60
2019-05-15T18:15:17.762Z,21.50
2019-05-15T18:18:09.166Z,21.50
2019-05-15T18:20:58.069Z,21.50
2019-05-15T18:23:48.480Z,21.50
2019-05-15T18:26:38.504Z,21.50
2019-05-15T18:29:25.736Z,21.50
2019-05-15T18:32:14.276Z,21.50
2019-05-15T18:35:03.865Z,21.50
2019-05-15T18:37:52.095Z,21.50
2019-05-15T18:40:40.334Z,21.50
2019-05-15T18:43:28.974Z,21.40
2019-05-15T18:46:18.344Z,21.50
2019-05-15T18:49:06.706Z,21.50
2019-05-15T18:51:55.331Z,21.50
2019-05-15T18:54:43.688Z,21.50
2019-05-15T18:57:32.393Z,21.50
2019-05-15T19:00:21.078Z,21.50
2019-05-15T19:03:19.643Z,21.60
2019-05-15T19:06:00.090Z,21.60
2019-05-15T19:08:48.686Z,21.50
2019-05-15T19:11:38.710Z,21.50
2019-05-15T19:14:28.011Z,21.50
2019-05-15T19:17:18.578Z,21.50
2019-05-15T19:20:08.418Z,21.50
2019-05-15T19:22:58.892Z,21.60
2019-05-15T19:25:48.406Z,21.50
2019-05-15T19:28:41.201Z,21.40
2019-05-15T19:31:32.616Z,21.30
2019-05-15T19:34:22.372Z,21.40
2019-05-15T19:37:10.951Z,21.40
2019-05-15T19:39:59.623Z,21.40
2019-05-15T19:42:48.749Z,21.50
2019-05-15T19:45:39.211Z,21.40
2019-05-15T19:48:27.491Z,21.30
2019-05-15T19:51:18.323Z,21.30
2019-05-15T19:54:09.254Z,21.30
2019-05-15T19:56:58.697Z,21.30
2019-05-15T19:59:50.628Z,21.20
2019-05-15T20:02:42.325Z,21.30
2019-05-15T20:05:34.819Z,21.30
2019-05-15T20:08:23.666Z,21.30
2019-05-15T20:11:12.482Z,21.40
2019-05-15T20:14:00.859Z,21.40
2019-05-15T20:16:51.456Z,21.40
2019-05-15T20:19:43.496Z,21.40
2019-05-15T20:22:32.614Z,21.50
2019-05-15T20:25:24.172Z,21.40
2019-05-15T20:28:15.941Z,20.90
2019-05-15T20:31:10.940Z,20.90
2019-05-15T20:34:05.772Z,21.00
2019-05-15T20:36:54.085Z,21.10
2019-05-15T20:39:49.082Z,21.20
2019-05-15T20:42:38.079Z,21.20
2019-05-15T20:45:29.136Z,21.20
2019-05-15T20:48:18.465Z,21.30
2019-05-15T20:51:07.152Z,21.30
2019-05-15T20:53:57.746Z,21.30
2019-05-15T20:56:45.534Z,21.30
2019-05-15T20:59:33.544Z,21.30
2019-05-15T21:30:29.550Z,21.30
2019-05-15T21:33:17.974Z,21.30
2019-05-15T21:36:07.932Z,21.30
2019-05-15T21:38:56.082Z,21.30
2019-05-15T21:41:44.360Z,21.40
2019-05-15T21:44:32.887Z,21.40
2019-05-15T21:47:21.162Z,21.40
2019-05-15T21:50:10.304Z,21.50
2019-05-15T21:52:58.381Z,21.50
2019-05-15T21:55:47.717Z,21.40
2019-05-15T21:58:37.683Z,21.40
2019-05-15T22:01:28.120Z,21.50
2019-05-15T22:04:16.193Z,21.50
2019-05-15T22:07:05.736Z,21.50
2019-05-15T22:09:54.038Z,21.40
2019-05-15T22:12:42.390Z,21.40
2019-05-15T22:15:30.591Z,21.30
2019-05-15T22:18:19.135Z,21.50
2019-05-15T22:21:07.921Z,21.60
2019-05-15T22:23:59.945Z,21.60
2019-05-15T22:26:48.153Z,21.70
2019-05-15T22:29:37.941Z,21.70
2019-05-15T22:32:29.041Z,21.80
2019-05-15T22:35:18.708Z,21.70
2019-05-15T22:38:08.853Z,21.70
2019-05-15T22:40:57.736Z,21.70
2019-05-15T22:43:45.943Z,21.60
2019-05-15T22:46:35.567Z,21.50
2019-05-15T22:49:23.967Z,21.40
2019-05-15T22:52:12.467Z,21.50
2019-05-15T22:55:01.535Z,21.40
2019-05-15T22:57:50.071Z,21.40
2019-05-15T23:04:01.230Z,21.40
2019-05-15T23:06:50.784Z,21.40
2019-05-15T23:09:52.156Z,21.40
2019-05-15T23:12:40.376Z,21.40
2019-05-15T23:15:28.671Z,21.40
2019-05-15T23:18:17.895Z,21.40
2019-05-15T23:21:08.800Z,21.40
2019-05-15T23:23:56.917Z,21.50
2019-05-15T23:26:45.034Z,21.40
2019-05-15T23:29:33.358Z,21.30
2019-05-15T23:32:21.610Z,21.20
2019-05-15T23:35:10.253Z,21.10
2019-05-15T23:37:58.727Z,21.10
2019-05-15T23:40:48.353Z,21.20
2019-05-15T23:43:38.738Z,21.20
2019-05-15T23:46:28.702Z,21.20
2019-05-15T23:49:16.478Z,21.20
2019-05-15T23:52:04.896Z,21.30
2019-05-15T23:54:53.359Z,21.20
2019-05-15T23:57:41.871Z,21.20
